Time;durP1;ratioP1;P1;durP2;ratioP2;P2;SDS_P1;SDS_P2;PMS_P1;PMS_P2;Temp;Humidity;BMP_temperature;BMP_pressure;BME280_temperature;BME280_humidity;BME280_pressure;Samples;Min_cycle;Max_cycle;Signal;HPM_P1;HPM_P2
2022/05/04 00:01:53;;;;;;;;;;;;;;;9.40;65.07;101901.84;5013118;28;19991;-58
2022/05/04 00:04:18;;;;;;;;;;;;;;;9.36;65.26;101905.72;5028298;28;19913;-57
2022/05/04 00:06:43;;;;;;;;;;;;;;;9.30;64.98;101907.06;5012816;28;19984;-57
2022/05/04 00:09:08;;;;;;;;;;;;;;;9.27;65.53;101902.88;5011623;28;19913;-58
2022/05/04 00:11:34;;;;;;;;;;;;;;;9.30;65.55;101907.06;5012793;28;19941;-57
2022/05/04 00:13:59;;;;;;;;;;;;;;;9.30;65.37;101901.78;5012973;28;19967;-58
2022/05/04 00:16:24;;;;;;;;;;;;;;;9.28;65.02;101899.25;5012607;28;20660;-58
2022/05/04 00:18:49;;;;;;;;;;;;;;;9.27;65.12;101902.88;5012594;28;19913;-57
2022/05/04 00:21:14;;;;;;;;;;;;;;;9.30;65.56;101901.78;5011509;28;19925;-57
2022/05/04 00:23:40;;;;;;;;;;;;;;;9.29;65.87;101911.50;5012557;28;19918;-58
2022/05/04 00:26:05;;;;;;;;;;;;;;;9.30;65.32;101912.38;5011322;28;19917;-58
2022/05/04 00:28:30;;;;;;;;;;;;;;;9.24;65.36;101903.09;5012628;28;19927;-57
2022/05/04 00:30:55;;;;;;;;;;;;;;;9.24;65.47;101902.28;5012822;28;19956;-57
2022/05/04 00:33:21;;;;;;;;;;;;;;;9.26;65.13;101905.63;5012653;28;20059;-57
2022/05/04 00:35:46;;;;;;;;;;;;;;;9.28;65.78;101903.72;5012695;28;20364;-57
2022/05/04 00:38:11;;;;;;;;;;;;;;;9.28;65.48;101909.84;5012631;28;20374;-58
2022/05/04 00:40:36;;;;;;;;;;;;;;;9.29;65.41;101906.22;5012429;28;19913;-57
2022/05/04 00:43:02;;;;;;;;;;;;;;;9.30;65.33;101907.06;5012813;28;20000;-57
2022/05/04 00:45:27;;;;;;;;;;;;;;;9.28;66.25;101907.19;5011250;28;19960;-58
2022/05/04 00:47:52;;;;;;;;;;;;;;;9.24;65.96;101897.81;5012669;28;19920;-58
2022/05/04 00:50:18;;;;;;;;;;;;;;;9.17;66.59;101901.94;5012504;28;20508;-58
2022/05/04 00:52:44;;;;;;;;;;;;;;;9.07;67.26;101896.56;5012529;28;19913;-57
2022/05/04 00:55:10;;;;;;;;;;;;;;;9.07;66.78;101895.75;5012262;28;20425;-58
2022/05/04 01:00:20;;;;;;;;;;;;;;;9.07;66.82;101895.75;5012470;28;19960;-58
2022/05/04 01:02:45;;;;;;;;;;;;;;;9.10;66.62;101890.19;5012378;28;19945;-57
2022/05/04 01:05:10;;;;;;;;;;;;;;;9.07;66.47;101895.75;5012398;28;19968;-57
2022/05/04 01:07:39;;;;;;;;;;;;;;;9.07;66.78;101890.44;5012275;28;19914;-57
2022/05/04 01:10:04;;;;;;;;;;;;;;;9.10;65.99;101890.19;5012355;28;20318;-57
2022/05/04 01:12:30;;;;;;;;;;;;;;;9.13;66.27;101887.31;5012366;28;20004;-58
2022/05/04 01:14:55;;;;;;;;;;;;;;;9.20;65.79;101895.56;5012187;28;19914;-58
2022/05/04 01:17:20;;;;;;;;;;;;;;;9.19;66.03;101894.72;5012173;28;20275;-57
2022/05/04 01:19:46;;;;;;;;;;;;;;;9.21;66.51;101892.78;5012246;28;19995;-57
2022/05/04 01:22:11;;;;;;;;;;;;;;;9.20;66.00;101892.91;5012049;28;19997;-58
2022/05/04 01:24:36;;;;;;;;;;;;;;;9.22;66.42;101897.09;5012211;28;19925;-57
2022/05/04 01:27:01;;;;;;;;;;;;;;;9.23;65.84;101900.59;5010827;28;19913;-58
2022/05/04 01:29:26;;;;;;;;;;;;;;;9.19;66.38;101900.03;5012416;28;20378;-57
2022/05/04 01:31:51;;;;;;;;;;;;;;;9.16;65.99;101900.25;5015656;28;19918;-58
2022/05/04 01:34:17;;;;;;;;;;;;;;;9.11;67.51;101895.34;5015485;28;19940;-58
2022/05/04 01:36:43;;;;;;;;;;;;;;;9.05;67.30;101892.34;5015568;28;20348;-58
2022/05/04 01:39:08;;;;;;;;;;;;;;;8.93;68.13;101884.44;5015333;28;19952;-58
2022/05/04 01:44:17;;;;;;;;;;;;;;;8.93;67.77;101888.91;5015472;28;19921;-57
2022/05/04 01:46:42;;;;;;;;;;;;;;;8.89;68.30;101893.63;5015436;28;19917;-57
2022/05/04 01:49:07;;;;;;;;;;;;;;;8.92;67.21;101885.44;5014750;28;19976;-59
2022/05/04 01:51:33;;;;;;;;;;;;;;;8.94;67.10;101896.72;5009147;28;20399;-58
2022/05/04 01:53:58;;;;;;;;;;;;;;;8.99;67.28;101888.41;5009577;28;19917;-58
2022/05/04 01:56:23;;;;;;;;;;;;;;;9.05;66.91;101887.06;5013026;28;20004;-58
2022/05/04 01:58:48;;;;;;;;;;;;;;;9.05;66.46;101885.28;5013389;28;20323;-57
2022/05/04 02:01:13;;;;;;;;;;;;;;;9.05;66.80;101887.06;5013322;28;20099;-58
2022/05/04 02:03:39;;;;;;;;;;;;;;;9.04;66.97;101883.59;5011870;28;19921;-58
2022/05/04 02:06:04;;;;;;;;;;;;;;;8.99;66.79;101888.41;5029552;28;19928;-57
2022/05/04 02:08:29;;;;;;;;;;;;;;;8.97;67.19;101885.91;5014984;28;20356;-57
2022/05/04 02:10:54;;;;;;;;;;;;;;;8.86;67.62;101885.91;5014873;28;19921;-58
2022/05/04 02:13:20;;;;;;;;;;;;;;;8.90;67.46;101879.44;5014783;28;19913;-57
2022/05/04 02:15:45;;;;;;;;;;;;;;;8.84;66.79;101890.50;5014920;28;19995;-58
2022/05/04 02:18:10;;;;;;;;;;;;;;;8.87;67.30;101884.94;5014595;28;20375;-58
2022/05/04 02:20:35;;;;;;;;;;;;;;;8.88;66.67;101890.13;5014797;28;19918;-57
2022/05/04 02:23:00;;;;;;;;;;;;;;;8.86;68.18;101888.56;5014511;28;20391;-58
2022/05/04 02:25:26;;;;;;;;;;;;;;;8.87;66.98;101875.22;5014696;28;20002;-58
2022/05/04 02:27:51;;;;;;;;;;;;;;;8.88;66.81;101876.03;5014597;28;20292;-58
2022/05/04 02:30:16;;;;;;;;;;;;;;;8.86;67.10;101872.69;5014829;28;19914;-57
2022/05/04 02:32:41;;;;;;;;;;;;;;;8.86;66.95;101872.69;5015261;28;19943;-57
2022/05/04 02:37:57;;;;;;;;;;;;;;;8.86;67.52;101872.69;5014512;28;19920;-58
2022/05/04 02:40:23;;;;;;;;;;;;;;;8.85;66.85;101881.59;5014416;28;19924;-58
2022/05/04 02:42:48;;;;;;;;;;;;;;;8.81;67.15;101874.88;5014706;28;20620;-57
2022/05/04 02:45:14;;;;;;;;;;;;;;;8.78;66.72;101877.78;5014354;28;20360;-57
2022/05/04 02:47:39;;;;;;;;;;;;;;;8.73;67.52;101871.03;5014171;28;20443;-58
2022/05/04 02:50:05;;;;;;;;;;;;;;;8.71;67.42;101875.63;5014166;28;19917;-57
2022/05/04 02:52:30;;;;;;;;;;;;;;;8.72;67.81;101871.16;5001173;28;19913;-57
2022/05/04 02:54:55;;;;;;;;;;;;;;;8.69;67.52;101869.59;5014239;28;19960;-58
2022/05/04 02:57:21;;;;;;;;;;;;;;;8.64;68.15;101870.94;5014170;28;19913;-57
2022/05/04 02:59:46;;;;;;;;;;;;;;;8.60;67.75;101873.81;5014023;28;19959;-58
2022/05/04 03:02:29;;;;;;;;;;;;;;;8.68;67.78;101873.22;5013999;28;20000;-57
2022/05/04 03:04:55;;;;;;;;;;;;;;;8.68;68.02;101867.09;5013847;28;19917;-58
2022/05/04 03:07:21;;;;;;;;;;;;;;;8.68;67.88;101865.28;5012655;28;19964;-57
2022/05/04 03:09:46;;;;;;;;;;;;;;;8.61;67.86;101861.47;5013722;28;19948;-58
2022/05/04 03:12:11;;;;;;;;;;;;;;;8.53;67.97;101855.97;5013994;28;19979;-57
2022/05/04 03:14:36;;;;;;;;;;;;;;;8.45;68.74;101860.00;5013697;28;20319;-58
2022/05/04 03:17:01;;;;;;;;;;;;;;;8.37;68.40;101856.28;5013917;28;20323;-58
2022/05/04 03:19:27;;;;;;;;;;;;;;;8.34;68.49;101854.75;5013542;28;19929;-58
2022/05/04 03:21:52;;;;;;;;;;;;;;;8.37;68.73;101851.00;5013733;28;19967;-58
2022/05/04 03:24:18;;;;;;;;;;;;;;;8.41;67.91;101855.94;5013480;28;19917;-58
2022/05/04 03:26:43;;;;;;;;;;;;;;;8.40;68.48;101851.63;5013670;28;19920;-57
2022/05/04 03:29:09;;;;;;;;;;;;;;;8.40;67.68;101856.91;5013456;28;19936;-58
2022/05/04 03:31:34;;;;;;;;;;;;;;;8.43;67.94;101851.34;5013497;28;19983;-57
2022/05/04 03:33:59;;;;;;;;;;;;;;;8.46;67.55;101845.84;5013686;28;20579;-57
2022/05/04 03:36:25;;;;;;;;;;;;;;;8.50;67.50;101850.88;5013372;28;20368;-58
2022/05/04 03:38:51;;;;;;;;;;;;;;;8.54;67.50;101852.34;5013325;28;19920;-58
2022/05/04 03:41:16;;;;;;;;;;;;;;;8.56;67.81;101855.69;5013424;28;19914;-57
2022/05/04 03:43:42;;;;;;;;;;;;;;;8.46;67.89;101851.13;5013284;28;19913;-58
2022/05/04 03:46:13;;;;;;;;;;;;;;;8.39;68.32;101855.19;5013242;28;19913;-57
2022/05/04 03:48:38;;;;;;;;;;;;;;;8.37;67.39;101854.50;5013233;28;19913;-57
2022/05/04 03:51:03;;;;;;;;;;;;;;;8.38;67.56;101853.53;5013265;28;20375;-57
2022/05/04 03:53:28;;;;;;;;;;;;;;;8.41;67.74;101852.44;5012620;28;19941;-57
2022/05/04 03:55:53;;;;;;;;;;;;;;;8.44;67.58;101853.03;5013042;28;19935;-58
2022/05/04 03:58:18;;;;;;;;;;;;;;;8.39;67.71;101857.03;5012897;28;19917;-58
2022/05/04 04:00:44;;;;;;;;;;;;;;;8.38;68.04;101853.53;5008251;28;20614;-57
2022/05/04 04:03:09;;;;;;;;;;;;;;;8.38;67.88;101853.53;5003570;28;19921;-57
2022/05/04 04:05:34;;;;;;;;;;;;;;;8.38;67.44;101853.53;5009590;28;19922;-58
2022/05/04 04:07:59;;;;;;;;;;;;;;;8.36;67.37;101855.47;5011342;28;20459;-57
2022/05/04 04:10:25;;;;;;;;;;;;;;;8.32;67.57;101854.88;5012377;28;20368;-57
2022/05/04 04:12:50;;;;;;;;;;;;;;;8.32;67.68;101860.16;5012928;28;19919;-58
2022/05/04 04:15:15;;;;;;;;;;;;;;;8.28;67.71;101848.13;5013004;28;19961;-58
2022/05/04 04:17:40;;;;;;;;;;;;;;;8.25;67.79;101848.38;5013029;28;20410;-58
2022/05/04 04:22:50;;;;;;;;;;;;;;;8.19;67.87;101849.69;5012739;28;19920;-58
2022/05/04 04:25:16;;;;;;;;;;;;;;;8.16;67.69;101852.59;5012800;28;19909;-58
2022/05/04 04:27:41;;;;;;;;;;;;;;;8.18;67.66;101847.16;5012754;28;19924;-58
2022/05/04 04:30:06;;;;;;;;;;;;;;;8.20;67.64;101855.84;5012873;28;19917;-57
2022/05/04 04:32:31;;;;;;;;;;;;;;;8.13;67.87;101849.31;5012286;28;19924;-57
2022/05/04 04:34:57;;;;;;;;;;;;;;;8.07;67.90;101861.22;5012842;28;19980;-58
2022/05/04 04:37:22;;;;;;;;;;;;;;;8.04;68.26;101861.47;5012563;28;19920;-58
2022/05/04 04:39:47;;;;;;;;;;;;;;;8.00;68.17;101850.28;5012606;28;19913;-57
2022/05/04 04:42:13;;;;;;;;;;;;;;;8.01;67.89;101856.41;5012485;28;20422;-57
2022/05/04 04:44:38;;;;;;;;;;;;;;;8.06;67.60;101859.56;5027868;28;19921;-58
2022/05/04 04:47:03;;;;;;;;;;;;;;;8.08;67.55;101862.91;5012617;28;19913;-57
2022/05/04 04:49:28;;;;;;;;;;;;;;;8.08;67.71;101862.91;5012500;28;19945;-57
2022/05/04 04:51:54;;;;;;;;;;;;;;;8.06;68.02;101856.91;5012427;28;19991;-58
2022/05/04 04:54:19;;;;;;;;;;;;;;;8.07;67.71;101866.50;5012555;28;20481;-58
2022/05/04 04:56:44;;;;;;;;;;;;;;;8.09;68.10;101864.59;5012243;28;19917;-58
2022/05/04 04:59:09;;;;;;;;;;;;;;;8.13;67.74;101854.59;5012551;28;19956;-58
2022/05/04 05:01:34;;;;;;;;;;;;;;;8.17;67.89;101856.91;5012256;28;19925;-58
2022/05/04 05:04:00;;;;;;;;;;;;;;;8.14;67.88;101862.44;5012598;28;20079;-57
2022/05/04 05:06:25;;;;;;;;;;;;;;;8.17;67.69;101854.28;5015677;28;19917;-58
2022/05/04 05:08:50;;;;;;;;;;;;;;;8.17;67.87;101861.34;5016275;28;19913;-57
2022/05/04 05:11:16;;;;;;;;;;;;;;;8.16;67.52;101865.81;5015814;28;19919;-58
2022/05/04 05:16:25;;;;;;;;;;;;;;;8.17;67.73;101870.13;5016009;28;20015;-57
2022/05/04 05:18:50;;;;;;;;;;;;;;;8.12;67.89;101863.50;5016004;28;20000;-57
2022/05/04 05:21:15;;;;;;;;;;;;;;;8.12;67.92;101866.16;5016039;28;19914;-58
2022/05/04 05:23:41;;;;;;;;;;;;;;;8.14;67.79;101867.72;5015760;28;19917;-58
2022/05/04 05:26:06;;;;;;;;;;;;;;;8.12;67.72;101874.94;5015814;28;19921;-58
2022/05/04 05:28:31;;;;;;;;;;;;;;;8.09;67.91;101869.88;5015905;28;19953;-58
2022/05/04 05:30:56;;;;;;;;;;;;;;;8.12;68.12;101874.06;5015894;28;19919;-57
2022/05/04 05:33:21;;;;;;;;;;;;;;;8.14;68.04;101866.88;5015745;28;19914;-58
2022/05/04 05:35:47;;;;;;;;;;;;;;;8.12;68.74;101874.94;5014664;28;19952;-58
2022/05/04 05:38:12;;;;;;;;;;;;;;;8.12;68.27;101869.63;5015389;28;19913;-58
2022/05/04 05:40:38;;;;;;;;;;;;;;;8.13;68.21;101866.03;5015458;28;19917;-58
2022/05/04 05:43:03;;;;;;;;;;;;;;;8.15;67.96;101868.56;5013992;28;19913;-58
2022/05/04 05:45:28;;;;;;;;;;;;;;;8.12;68.93;101867.00;5014091;28;19914;-57
2022/05/04 05:47:54;;;;;;;;;;;;;;;8.13;68.61;101876.59;5015457;28;19917;-58
2022/05/04 05:50:19;;;;;;;;;;;;;;;8.20;67.98;101877.78;5015430;28;19913;-57
2022/05/04 05:52:44;;;;;;;;;;;;;;;8.23;68.52;101870.59;5015390;28;19918;-58
2022/05/04 05:55:10;;;;;;;;;;;;;;;8.29;68.06;101875.41;5015382;28;20000;-58
2022/05/04 05:57:35;;;;;;;;;;;;;;;8.38;67.60;101882.59;5013943;28;19917;-58
2022/05/04 06:00:01;;;;;;;;;;;;;;;8.37;67.61;101873.00;5015240;28;20406;-58
2022/05/04 06:02:27;;;;;;;;;;;;;;;8.44;67.97;101878.66;5015228;28;19914;-58
2022/05/04 06:04:52;;;;;;;;;;;;;;;8.47;67.63;101879.25;5015224;28;19914;-58
2022/05/04 06:07:17;;;;;;;;;;;;;;;8.58;67.62;101877.56;5015205;28;19960;-57
2022/05/04 06:09:42;;;;;;;;;;;;;;;8.67;67.49;101881.25;5015065;28;19913;-58
2022/05/04 06:12:07;;;;;;;;;;;;;;;8.74;67.20;101885.13;5014995;28;19913;-58
2022/05/04 06:14:33;;;;;;;;;;;;;;;8.85;67.19;101886.91;5014910;28;20039;-58
2022/05/04 06:16:58;;;;;;;;;;;;;;;8.85;67.45;101881.59;5014672;28;19965;-57
2022/05/04 06:19:23;;;;;;;;;;;;;;;9.08;66.61;101886.84;5013360;28;19917;-58
2022/05/04 06:21:48;;;;;;;;;;;;;;;8.96;66.83;101884.22;5014952;28;20261;-57
2022/05/04 06:24:13;;;;;;;;;;;;;;;9.01;66.56;101892.63;5014480;28;19918;-58
2022/05/04 06:26:39;;;;;;;;;;;;;;;9.12;66.41;101898.81;5014529;28;20377;-58
2022/05/04 06:29:05;;;;;;;;;;;;;;;9.20;66.38;101893.75;5014708;28;19928;-58
2022/05/04 06:34:13;;;;;;;;;;;;;;;9.29;66.66;101890.34;5014961;28;19960;-57
2022/05/04 06:36:40;;;;;;;;;;;;;;;9.34;66.00;101891.78;5014629;28;19949;-57
2022/05/04 06:39:05;;;;;;;;;;;;;;;9.41;65.05;101896.44;5014641;28;20291;-57
2022/05/04 06:41:30;;;;;;;;;;;;;;;9.33;65.54;101896.22;5014646;28;19914;-58
2022/05/04 06:43:56;;;;;;;;;;;;;;;9.33;65.46;101895.38;5014238;28;19920;-58
2022/05/04 06:46:21;;;;;;;;;;;;;;;9.34;64.95;101903.22;5014302;28;19914;-58
2022/05/04 06:48:46;;;;;;;;;;;;;;;9.37;65.64;101908.25;5014192;28;19914;-57
2022/05/04 06:51:12;;;;;;;;;;;;;;;9.36;65.16;101905.72;5014046;28;19921;-58
2022/05/04 06:53:37;;;;;;;;;;;;;;;9.41;64.79;101898.22;5014194;28;19982;-58
2022/05/04 06:56:02;;;;;;;;;;;;;;;9.47;64.82;101888.94;5014519;28;19913;-57
2022/05/04 06:58:27;;;;;;;;;;;;;;;9.51;65.13;101896.50;5014376;28;19914;-57
2022/05/04 07:00:52;;;;;;;;;;;;;;;9.66;65.08;101896.16;5014405;28;19914;-57
2022/05/04 07:03:19;;;;;;;;;;;;;;;9.65;65.02;101894.50;5014067;28;20385;-57
2022/05/04 07:05:44;;;;;;;;;;;;;;;9.67;64.85;101884.63;5014051;28;20459;-58
2022/05/04 07:08:10;;;;;;;;;;;;;;;9.76;64.44;101886.50;5013933;28;19918;-57
2022/05/04 07:10:35;;;;;;;;;;;;;;;9.93;63.49;101892.16;5013904;28;19992;-57
2022/05/04 07:13:00;;;;;;;;;;;;;;;9.98;64.16;101889.97;5013925;28;20008;-57
2022/05/04 07:15:25;;;;;;;;;;;;;;;10.01;63.65;101889.69;5013956;28;19924;-58
2022/05/04 07:17:51;;;;;;;;;;;;;;;10.09;64.02;101889.88;5013845;28;19921;-57
2022/05/04 07:20:16;;;;;;;;;;;;;;;10.18;62.58;101890.06;5013834;28;19914;-57
2022/05/04 07:22:41;;;;;;;;;;;;;;;10.22;63.02;101891.47;5012411;28;20004;-58
2022/05/04 07:25:06;;;;;;;;;;;;;;;10.30;62.74;101883.69;5013479;28;19917;-57
2022/05/04 07:27:32;;;;;;;;;;;;;;;10.35;60.99;101878.81;5013043;28;19952;-57
2022/05/04 07:29:57;;;;;;;;;;;;;;;10.33;62.06;101883.44;5013582;28;20382;-57
2022/05/04 07:32:22;;;;;;;;;;;;;;;10.38;62.40;101884.81;5013484;28;19913;-58
2022/05/04 07:34:47;;;;;;;;;;;;;;;10.34;61.90;101877.16;5013378;28;19944;-58
2022/05/04 07:37:13;;;;;;;;;;;;;;;10.41;61.76;101879.25;5013422;28;20335;-58
2022/05/04 07:42:22;;;;;;;;;;;;;;;10.59;62.64;101882.97;5013446;28;19992;-57
2022/05/04 07:44:47;;;;;;;;;;;;;;;10.73;61.42;101888.84;5013488;28;20383;-57
2022/05/04 07:47:13;;;;;;;;;;;;;;;10.82;61.38;101889.84;5013211;28;19913;-57
2022/05/04 07:49:38;;;;;;;;;;;;;;;10.93;61.10;101891.53;5013214;28;19920;-57
2022/05/04 07:52:03;;;;;;;;;;;;;;;10.98;62.20;101887.50;5013321;28;20583;-58
2022/05/04 07:54:28;;;;;;;;;;;;;;;11.03;61.56;101884.44;5013667;28;19917;-58
2022/05/04 07:56:54;;;;;;;;;;;;;;;11.12;60.92;101883.59;5013234;28;19960;-58
2022/05/04 07:59:19;;;;;;;;;;;;;;;11.17;60.71;101896.47;5013056;28;19913;-58
2022/05/04 08:04:28;;;;;;;;;;;;;;;11.41;60.66;101889.88;5013180;28;19955;-57
2022/05/04 08:06:53;;;;;;;;;;;;;;;11.51;60.82;101895.19;5013231;28;19933;-57
2022/05/04 08:09:18;;;;;;;;;;;;;;;11.51;60.33;101892.53;5012907;28;19960;-57
2022/05/04 08:11:43;;;;;;;;;;;;;;;11.56;60.73;101891.09;5012985;28;19917;-57
2022/05/04 08:14:09;;;;;;;;;;;;;;;11.65;59.63;101888.59;5012914;28;19918;-57
2022/05/04 08:16:35;;;;;;;;;;;;;;;11.75;59.63;101897.38;5013077;28;19924;-58
2022/05/04 08:19:00;;;;;;;;;;;;;;;11.71;59.83;101888.03;5028018;28;19963;-58
2022/05/04 08:21:26;;;;;;;;;;;;;;;11.81;59.77;101894.16;5012843;28;19914;-59
2022/05/04 08:23:51;;;;;;;;;;;;;;;11.93;59.07;101889.50;5012699;28;20322;-59
2022/05/04 08:26:16;;;;;;;;;;;;;;;11.93;58.46;101889.50;5012780;28;19913;-59
2022/05/04 08:28:42;;;;;;;;;;;;;;;11.81;59.24;101888.00;5012824;28;20313;-59
2022/05/04 08:31:07;;;;;;;;;;;;;;;11.92;58.66;101893.16;5012775;28;19913;-58
2022/05/04 08:33:32;;;;;;;;;;;;;;;12.13;57.78;101894.78;5012705;28;19937;-59
2022/05/04 08:35:57;;;;;;;;;;;;;;;12.10;57.73;101897.75;5012670;28;19929;-58
2022/05/04 08:38:22;;;;;;;;;;;;;;;12.15;58.00;101894.63;5012866;28;20402;-59
2022/05/04 08:40:50;;;;;;;;;;;;;;;12.17;57.57;101897.97;5016665;28;20003;-59
2022/05/04 08:43:16;;;;;;;;;;;;;;;12.05;58.39;101897.34;5016804;28;20008;-58
2022/05/04 08:45:42;;;;;;;;;;;;;;;12.09;57.23;101896.06;5016682;28;20000;-59
2022/05/04 08:48:08;;;;;;;;;;;;;;;12.15;57.74;101890.16;5016618;28;20004;-59
2022/05/04 08:50:34;;;;;;;;;;;;;;;12.39;56.81;101891.47;5016428;28;20378;-58
2022/05/04 08:53:00;;;;;;;;;;;;;;;12.29;57.83;101890.66;5016653;28;19913;-58
2022/05/04 08:55:25;;;;;;;;;;;;;;;12.43;55.70;101887.50;5016409;28;19987;-56
2022/05/04 08:57:51;;;;;;;;;;;;;;;12.38;56.56;101884.44;5016431;28;19913;-56
2022/05/04 09:00:17;;;;;;;;;;;;;;;12.63;55.08;101887.41;5031459;28;20271;-56
2022/05/04 09:02:42;;;;;;;;;;;;;;;12.45;56.13;101890.03;5015991;28;20007;-56
2022/05/04 09:05:15;;;;;;;;;;;;;;;12.52;56.11;101885.78;5013824;28;20000;-56
2022/05/04 09:07:40;;;;;;;;;;;;;;;12.55;56.52;101887.31;5015926;28;20016;-56
2022/05/04 09:10:06;;;;;;;;;;;;;;;12.56;56.44;101881.84;5014404;28;19921;-55
2022/05/04 09:12:32;;;;;;;;;;;;;;;12.82;54.90;101885.63;5015729;28;19920;-56
2022/05/04 09:14:57;;;;;;;;;;;;;;;12.69;55.30;101881.50;5015857;28;19967;-56
2022/05/04 09:17:22;;;;;;;;;;;;;;;12.70;55.94;101883.16;5015733;28;19948;-56
2022/05/04 09:22:38;;;;;;;;;;;;;;;12.81;55.14;101879.44;5015656;28;20064;-56
2022/05/04 09:25:03;;;;;;;;;;;;;;;12.85;55.44;101872.84;5015503;28;20000;-56
2022/05/04 09:27:29;;;;;;;;;;;;;;;12.97;53.40;101868.13;5015510;28;20342;-56
2022/05/04 09:29:58;;;;;;;;;;;;;;;13.13;55.25;101863.94;5015320;28;19917;-56
2022/05/04 09:32:29;;;;;;;;;;;;;;;13.28;54.77;101864.22;5015123;28;19918;-56
2022/05/04 09:34:54;;;;;;;;;;;;;;;13.51;54.81;101864.59;5015745;28;19913;-56
2022/05/04 09:45:35;;;;;;;;;;;;;;;13.59;53.63;101867.28;5015497;28;19924;-59
2022/05/04 09:48:01;;;;;;;;;;;;;;;13.45;54.29;101873.19;5015357;28;19914;-56
2022/05/04 09:50:26;;;;;;;;;;;;;;;13.47;52.65;101867.72;5014494;28;19913;-56
2022/05/04 09:52:52;;;;;;;;;;;;;;;13.41;54.02;101864.66;5015262;28;19914;-56
2022/05/04 09:55:23;;;;;;;;;;;;;;;13.46;53.90;101861.56;5015516;28;19913;-56
2022/05/04 09:57:48;;;;;;;;;;;;;;;13.56;53.46;101856.97;5015388;28;20000;-56
2022/05/04 10:00:15;;;;;;;;;;;;;;;13.57;51.51;101858.63;5015061;28;20005;-56
2022/05/04 10:02:40;;;;;;;;;;;;;;;13.55;53.66;101854.44;5015187;28;20067;-56
2022/05/04 10:05:07;;;;;;;;;;;;;;;13.70;52.30;101857.38;5013200;28;20375;-56
2022/05/04 10:07:35;;;;;;;;;;;;;;;13.67;53.37;101852.38;5015096;28;19960;-56
2022/05/04 10:10:00;;;;;;;;;;;;;;;13.74;52.31;101853.41;5014934;28;19913;-56
2022/05/04 10:12:26;;;;;;;;;;;;;;;13.89;52.02;101855.47;5014879;28;19914;-56
2022/05/04 10:14:51;;;;;;;;;;;;;;;14.07;52.35;101853.56;5014859;28;19940;-56
2022/05/04 10:17:21;;;;;;;;;;;;;;;14.02;51.98;101850.56;5014832;28;19913;-56
2022/05/04 10:19:52;;;;;;;;;;;;;;;14.19;51.59;101847.94;5014954;28;19913;-56
2022/05/04 10:22:21;;;;;;;;;;;;;;;14.34;50.27;101851.69;5014668;28;19936;-56
2022/05/04 10:24:46;;;;;;;;;;;;;;;14.27;51.71;101848.00;5014690;28;19924;-56
2022/05/04 10:27:19;;;;;;;;;;;;;;;14.31;50.95;101841.31;5014643;28;20498;-56
2022/05/04 10:32:46;;;;;;;;;;;;;;;14.52;49.98;101845.41;5014545;28;19972;-56
2022/05/04 10:35:12;;;;;;;;;;;;;;;14.53;48.73;101849.75;5014549;28;19914;-55
2022/05/04 10:37:53;;;;;;;;;;;;;;;14.37;49.68;101840.69;5014536;28;19913;-57
2022/05/04 10:40:25;;;;;;;;;;;;;;;14.52;49.78;101843.56;5014328;28;19988;-56
2022/05/04 10:42:57;;;;;;;;;;;;;;;14.71;48.52;101840.78;5001850;28;19920;-57
2022/05/04 10:45:24;;;;;;;;;;;;;;;14.69;49.19;101840.09;5014378;28;20446;-57
2022/05/04 10:47:49;;;;;;;;;;;;;;;14.88;48.87;101845.16;5014201;28;19967;-57
2022/05/04 10:50:18;;;;;;;;;;;;;;;14.77;49.07;101842.81;5014009;28;19917;-58
2022/05/04 10:52:47;;;;;;;;;;;;;;;14.89;48.93;101852.16;5014115;28;19921;-57
2022/05/04 10:55:12;;;;;;;;;;;;;;;15.01;49.80;101839.31;5012756;28;19923;-58
2022/05/04 10:57:43;;;;;;;;;;;;;;;14.94;49.56;101832.97;5014034;28;19913;-57
2022/05/04 11:00:10;;;;;;;;;;;;;;;15.11;48.62;101832.97;5013955;28;19976;-57
2022/05/04 11:02:36;;;;;;;;;;;;;;;15.00;48.86;101828.81;5013917;28;20379;-58
2022/05/04 11:05:10;;;;;;;;;;;;;;;15.15;47.17;101823.63;5013981;28;19913;-57
2022/05/04 11:07:36;;;;;;;;;;;;;;;14.93;48.38;101826.81;5012641;28;20435;-57
2022/05/04 11:10:01;;;;;;;;;;;;;;;15.01;48.48;101827.81;5013918;28;20004;-57
2022/05/04 11:12:26;;;;;;;;;;;;;;;15.15;48.38;101829.81;5013682;28;20008;-57
2022/05/04 11:14:51;;;;;;;;;;;;;;;15.52;45.47;101824.06;5013758;28;20368;-58
2022/05/04 11:17:17;;;;;;;;;;;;;;;15.32;45.67;101830.63;5013700;28;19937;-57
2022/05/04 11:19:43;;;;;;;;;;;;;;;15.12;47.35;101824.81;5013696;28;20327;-57
2022/05/04 11:22:08;;;;;;;;;;;;;;;15.19;47.76;101823.13;5013166;28;19913;-58
2022/05/04 11:24:34;;;;;;;;;;;;;;;15.30;47.82;101810.44;5013362;28;19917;-57
2022/05/04 11:26:59;;;;;;;;;;;;;;;15.44;47.66;101817.75;5013566;28;19967;-58
2022/05/04 11:29:25;;;;;;;;;;;;;;;15.69;46.74;101820.38;5013516;28;19976;-58
2022/05/04 11:31:55;;;;;;;;;;;;;;;15.66;47.25;101815.38;5012596;28;20304;-58
2022/05/04 11:34:21;;;;;;;;;;;;;;;15.64;46.16;101817.38;5013366;28;19940;-58
2022/05/04 11:36:48;;;;;;;;;;;;;;;15.64;47.72;101812.00;5013222;28;19914;-58
2022/05/04 11:39:14;;;;;;;;;;;;;;;15.74;47.46;101807.31;5013061;28;19972;-58
2022/05/04 11:41:39;;;;;;;;;;;;;;;15.85;47.65;101808.78;5013402;28;20049;-58
2022/05/04 11:44:05;;;;;;;;;;;;;;;16.07;46.90;101816.25;5013342;28;20382;-56
2022/05/04 11:46:30;;;;;;;;;;;;;;;16.07;46.98;101795.69;5013592;28;20399;-58
2022/05/04 11:48:56;;;;;;;;;;;;;;;16.10;46.26;101799.84;5028376;28;19914;-58
2022/05/04 11:51:21;;;;;;;;;;;;;;;16.10;46.21;101795.31;5013090;28;19921;-58
2022/05/04 11:53:46;;;;;;;;;;;;;;;16.11;44.75;101797.00;5013530;28;19913;-58
2022/05/04 11:56:11;;;;;;;;;;;;;;;16.20;46.58;101795.13;5013257;28;19921;-58
2022/05/04 11:58:40;;;;;;;;;;;;;;;16.37;46.47;101793.19;5012868;28;20291;-57
2022/05/04 12:01:06;;;;;;;;;;;;;;;16.40;46.69;101783.97;5012984;28;19996;-58
2022/05/04 12:03:33;;;;;;;;;;;;;;;16.57;45.72;101789.22;5012786;28;19913;-58
2022/05/04 12:05:59;;;;;;;;;;;;;;;16.66;45.84;101786.28;5012998;28;19988;-58
2022/05/04 12:08:25;;;;;;;;;;;;;;;16.69;43.84;101779.75;5012916;28;19967;-58
2022/05/04 12:10:50;;;;;;;;;;;;;;;16.70;43.43;101778.75;5013031;28;19913;-58
2022/05/04 12:13:19;;;;;;;;;;;;;;;16.84;45.00;101773.59;5012439;28;19917;-58
2022/05/04 12:15:45;;;;;;;;;;;;;;;16.83;45.01;101774.63;5013009;28;19918;-58
2022/05/04 12:18:11;;;;;;;;;;;;;;;16.87;43.98;101765.22;5012829;28;19936;-58
2022/05/04 12:20:36;;;;;;;;;;;;;;;16.93;44.13;101773.34;5012467;28;20479;-57
2022/05/04 12:23:02;;;;;;;;;;;;;;;17.14;43.56;101768.34;5012444;28;19936;-58
2022/05/04 12:25:27;;;;;;;;;;;;;;;16.95;43.82;101773.16;5012865;28;19914;-57
2022/05/04 12:27:54;;;;;;;;;;;;;;;16.75;44.04;101768.31;5012680;28;19913;-58
2022/05/04 12:33:11;;;;;;;;;;;;;;;16.91;44.23;101769.19;5012732;28;19925;-58
2022/05/04 12:35:38;;;;;;;;;;;;;;;16.91;43.01;101771.84;5011194;28;20012;-58
2022/05/04 12:38:04;;;;;;;;;;;;;;;17.04;44.16;101773.97;5012562;28;20009;-58
2022/05/04 12:40:31;;;;;;;;;;;;;;;17.34;43.78;101769.47;5012324;28;20372;-58
2022/05/04 12:42:56;;;;;;;;;;;;;;;17.14;43.89;101768.34;5012736;28;20405;-58
2022/05/04 12:45:23;;;;;;;;;;;;;;;17.33;42.98;101756.25;5012321;28;20000;-58
2022/05/04 12:47:48;;;;;;;;;;;;;;;17.23;41.33;101759.22;5012537;28;19913;-58
2022/05/04 12:50:13;;;;;;;;;;;;;;;17.24;42.28;101758.19;5027489;28;19921;-58
2022/05/04 12:52:39;;;;;;;;;;;;;;;17.10;42.69;101767.03;5012550;28;19917;-57
2022/05/04 12:55:05;;;;;;;;;;;;;;;17.06;43.34;101767.41;5012397;28;19924;-58
2022/05/04 12:57:30;;;;;;;;;;;;;;;17.08;41.73;101761.88;5012578;28;19964;-58
2022/05/04 12:59:55;;;;;;;;;;;;;;;17.24;43.57;101747.47;5012154;28;19920;-58
2022/05/04 13:02:20;;;;;;;;;;;;;;;17.41;43.35;101753.47;5012552;28;19939;-57
2022/05/04 13:04:45;;;;;;;;;;;;;;;17.57;42.14;101754.31;5012252;28;19914;-58
2022/05/04 13:07:11;;;;;;;;;;;;;;;17.67;40.79;101762.06;5012448;28;20382;-58
2022/05/04 13:09:36;;;;;;;;;;;;;;;17.53;41.33;101759.22;5012287;28;19921;-58
2022/05/04 13:12:02;;;;;;;;;;;;;;;17.45;42.77;101760.16;5011011;28;19913;-57
2022/05/04 13:14:27;;;;;;;;;;;;;;;17.76;42.06;101766.31;5012071;28;20008;-58